Spindale, North Carolina
Current Conditions -  °F | °C
As of 7:35 PM on Monday 22 Dec 2014 (Local Time) from KFQD Reporting Station
Haze Haze  
Wind Chill: 40°   Ceiling: 700
Heat Index: 40°   Visibility: 3mi
Dew Point: 40°   Wind: 0mph
Humidity: 99%   Direction: NA
Pressure: 30.03"   Gusts: NA
Location:  35.36°N, 81.93°W
Report Text: KFQD 230035Z AUTO 00000KT 3SM BR OVC007 05/04 A3003 RMK AO2 T00450043
Loading
Personal Weather Stations






























Interactive Weather Map New forecast layout! Learn more

10-Day Weather Forecast

Advertisements
Track Severe Weather on mobile